createdAt,value
2022-08-21T18:24:59.420Z,20.90
2022-08-21T18:30:02.692Z,20.10
2022-08-21T18:35:19.146Z,20.00
2022-08-21T18:40:23.609Z,19.90
2022-08-21T18:45:26.636Z,19.60
2022-08-21T18:50:30.006Z,19.40
2022-08-21T18:55:34.864Z,19.20
2022-08-21T19:00:45.680Z,19.00
2022-08-21T19:05:49.342Z,18.90
2022-08-21T19:10:58.525Z,18.80
2022-08-21T19:16:03.796Z,18.70
2022-08-21T19:21:07.311Z,18.80
2022-08-21T19:26:12.203Z,18.60
2022-08-21T19:31:19.641Z,18.60
2022-08-21T19:36:26.251Z,18.40
2022-08-21T19:41:45.535Z,18.20
2022-08-21T19:46:51.117Z,18.10
2022-08-21T19:51:58.019Z,18.10
2022-08-21T19:57:08.115Z,18.00
2022-08-21T20:02:23.728Z,17.90
2022-08-21T20:07:37.113Z,17.80
2022-08-21T20:12:41.981Z,17.60
2022-08-21T20:17:44.776Z,17.40
2022-08-21T20:22:47.601Z,17.10
2022-08-21T20:27:52.533Z,17.00
2022-08-21T20:32:57.973Z,17.00
2022-08-21T20:38:01.096Z,16.80
2022-08-21T20:43:05.821Z,16.80
2022-08-21T20:48:18.837Z,16.80
2022-08-21T20:53:43.645Z,16.60
2022-08-21T20:59:10.363Z,16.50
2022-08-21T21:10:17.090Z,16.70
2022-08-21T21:15:29.652Z,16.90
2022-08-21T21:20:37.970Z,17.00
2022-08-21T21:25:49.298Z,16.90
2022-08-21T21:30:58.159Z,16.70
2022-08-21T21:36:08.677Z,16.60
2022-08-21T21:46:55.826Z,16.70
2022-08-21T21:52:13.544Z,16.70
2022-08-21T21:57:32.185Z,16.70
2022-08-21T22:02:47.341Z,16.50
2022-08-21T22:08:07.887Z,16.60
2022-08-21T22:13:28.848Z,16.50
2022-08-21T22:18:45.261Z,16.40
2022-08-21T22:23:56.256Z,16.30
2022-08-21T22:29:05.400Z,16.50
2022-08-21T22:34:17.982Z,16.30
2022-08-21T22:39:39.397Z,16.20
2022-08-21T22:50:21.522Z,16.20
2022-08-21T22:55:32.349Z,16.00
2022-08-21T23:00:49.610Z,15.90
2022-08-21T23:05:55.224Z,15.80
2022-08-21T23:11:01.145Z,15.80
2022-08-21T23:16:10.959Z,15.80
2022-08-21T23:21:28.287Z,15.70
2022-08-21T23:26:40.428Z,15.70
2022-08-21T23:32:03.034Z,15.70
2022-08-21T23:37:48.795Z,15.60
2022-08-21T23:43:04.240Z,15.60
2022-08-21T23:48:29.340Z,15.40
2022-08-21T23:53:52.103Z,15.20
2022-08-21T23:59:03.059Z,15.30
